Time;durP1;ratioP1;P1;durP2;ratioP2;P2;SDS_P1;SDS_P2;PMS_P1;PMS_P2;Temp;Humidity;BMP_temperature;BMP_pressure;BME280_temperature;BME280_humidity;BME280_pressure;Samples;Min_cycle;Max_cycle;Signal;HPM_P1;HPM_P2
2024/03/25 00:01:18;;;;;;;5.93;2.27;;;6.10;78.10;;;7.51;58.27;96864.13;4860676;29;20045;-46
2024/03/25 00:03:44;;;;;;;5.23;3.00;;;6.10;78.10;;;7.54;58.13;96857.66;4860813;29;20048;-45
2024/03/25 00:06:11;;;;;;;3.70;2.03;;;6.10;78.10;;;7.53;58.28;96858.66;4860178;29;20068;-48
2024/03/25 00:08:38;;;;;;;6.00;2.50;;;6.10;77.50;;;7.53;58.29;96859.50;4861021;29;20049;-47
2024/03/25 00:11:04;;;;;;;4.53;2.20;;;6.10;78.20;;;7.57;57.96;96860.81;4860166;29;20072;-47
2024/03/25 00:13:31;;;;;;;3.30;2.37;;;6.20;78.00;;;7.59;58.15;96856.19;4861017;29;20059;-46
2024/03/25 00:15:58;;;;;;;4.07;2.10;;;6.20;77.70;;;7.50;58.11;96854.50;4860617;29;20049;-47
2024/03/25 00:18:24;;;;;;;6.73;2.67;;;6.10;77.10;;;7.46;57.94;96861.13;4860873;29;20033;-46
2024/03/25 00:20:51;;;;;;;5.73;2.90;;;6.00;77.50;;;7.45;58.14;96854.19;4860242;29;20045;-44
2024/03/25 00:23:18;;;;;;;4.23;2.67;;;6.00;77.90;;;7.40;58.13;96851.16;4860107;29;20053;-45
2024/03/25 00:25:45;;;;;;;5.97;2.00;;;6.00;78.10;;;7.39;57.87;96852.19;4860730;29;20105;-46
2024/03/25 00:28:11;;;;;;;8.10;2.83;;;6.00;78.00;;;7.30;58.06;96853.94;4860663;29;20044;-46
2024/03/25 00:30:38;;;;;;;7.10;2.70;;;5.90;78.20;;;7.35;58.24;96850.81;4860756;29;20045;-45
2024/03/25 00:33:06;;;;;;;6.13;2.67;;;5.90;78.30;;;7.23;58.45;96851.13;4860013;29;20395;-45
2024/03/25 00:35:33;;;;;;;3.63;2.17;;;5.80;78.20;;;7.25;58.71;96845.66;4860181;29;20052;-46
2024/03/25 00:38:00;;;;;;;4.83;2.80;;;5.80;78.60;;;7.25;58.03;96849.16;4860060;29;20226;-46
2024/03/25 00:40:27;;;;;;;6.07;3.30;;;5.80;77.60;;;7.26;58.32;96855.25;4860394;29;20049;-44
2024/03/25 00:42:54;;;;;;;6.23;2.77;;;5.80;78.30;;;7.24;58.48;96859.88;4859969;29;20037;-45
2024/03/25 00:45:20;;;;;;;8.87;2.67;;;5.80;77.90;;;7.28;57.95;96848.81;4860112;29;20041;-51
2024/03/25 00:47:48;;;;;;;2.70;2.03;;;5.90;78.20;;;7.20;58.03;96843.50;4860241;29;20049;-53
2024/03/25 00:50:15;;;;;;;5.53;2.93;;;5.80;77.80;;;7.15;58.76;96845.78;4860252;29;20056;-48
2024/03/25 00:52:41;;;;;;;5.63;2.63;;;5.80;77.80;;;7.24;58.32;96846.66;4859831;29;20045;-45
2024/03/25 00:55:08;;;;;;;3.60;2.37;;;5.80;78.40;;;7.25;58.45;96849.16;4859792;29;20067;-46
2024/03/25 00:57:35;;;;;;;5.43;3.17;;;5.80;78.30;;;7.10;58.90;96848.91;4859691;29;20041;-47
2024/03/25 01:00:04;;;;;;;5.77;2.80;;;5.70;78.60;;;7.19;58.46;96841.00;4860090;29;20430;-48
2024/03/25 01:02:31;;;;;;;6.17;2.33;;;5.80;78.60;;;7.27;58.42;96847.16;4859745;29;20037;-45
2024/03/25 01:04:59;;;;;;;4.47;2.67;;;5.80;78.70;;;7.35;58.48;96856.09;4859856;29;20052;-49
2024/03/25 01:07:26;;;;;;;6.10;2.83;;;5.90;78.50;;;7.35;57.98;96842.88;4852982;29;20045;-45
2024/03/25 01:09:53;;;;;;;6.57;2.60;;;5.90;78.50;;;7.42;58.16;96850.00;4829464;29;20049;-48
2024/03/25 01:12:19;;;;;;;6.90;2.90;;;5.90;78.30;;;7.43;58.00;96835.78;4859486;29;20399;-45
2024/03/25 01:14:47;;;;;;;8.07;3.13;;;6.00;77.70;;;7.38;57.73;96842.56;4860065;29;20045;-47
2024/03/25 01:17:13;;;;;;;5.57;2.47;;;5.90;76.70;;;7.42;58.11;96828.00;4859017;29;20053;-47
2024/03/25 01:19:40;;;;;;;4.67;2.60;;;5.90;77.50;;;7.45;58.16;96828.50;4862724;29;20045;-45
2024/03/25 01:22:07;;;;;;;6.20;3.00;;;6.00;77.70;;;7.51;57.80;96831.53;4863359;29;20049;-48
2024/03/25 01:24:33;;;;;;;7.50;2.50;;;6.00;77.30;;;7.51;57.58;96834.97;4863440;29;20396;-46
2024/03/25 01:27:00;;;;;;;5.77;2.23;;;6.10;77.30;;;7.52;57.57;96833.16;4863346;29;20049;-46
2024/03/25 01:29:27;;;;;;;6.37;2.90;;;6.10;77.00;;;7.53;57.50;96817.13;4863896;29;20052;-46
2024/03/25 01:31:54;;;;;;;7.13;2.87;;;6.10;77.00;;;7.49;57.39;96834.31;4862913;29;20478;-45
2024/03/25 01:34:20;;;;;;;6.67;2.87;;;6.10;76.30;;;7.43;57.77;96825.19;4863393;29;20052;-45
2024/03/25 01:36:47;;;;;;;7.07;2.80;;;6.00;77.10;;;7.46;57.57;96835.47;4863289;29;20164;-46
2024/03/25 01:39:13;;;;;;;5.37;2.90;;;6.00;77.00;;;7.41;57.56;96831.66;4878830;29;20148;-46
2024/03/25 01:41:40;;;;;;;7.17;3.00;;;5.90;77.10;;;7.39;57.49;96831.00;4847517;29;20045;-47
2024/03/25 01:44:07;;;;;;;5.70;2.77;;;5.90;77.30;;;7.38;57.50;96829.31;4863149;29;20049;-48
2024/03/25 01:46:34;;;;;;;4.87;3.23;;;5.90;76.70;;;7.33;57.99;96843.06;4863396;29;20048;-46
2024/03/25 01:49:00;;;;;;;4.70;2.70;;;5.90;77.50;;;7.28;58.26;96835.56;4862796;29;20040;-45
2024/03/25 01:51:28;;;;;;;6.63;2.83;;;5.90;77.70;;;7.34;57.77;96842.03;4862795;29;20041;-44
2024/03/25 01:53:55;;;;;;;3.77;2.53;;;5.90;77.00;;;7.33;58.00;96842.19;4862741;29;20120;-45
2024/03/25 01:56:24;;;;;;;3.80;2.53;;;5.90;76.90;;;7.37;57.86;96831.16;4863065;29;20033;-45
2024/03/25 01:58:52;;;;;;;4.90;2.60;;;5.90;77.10;;;7.39;57.43;96842.41;4862624;29;20356;-45
2024/03/25 02:01:21;;;;;;;6.63;2.67;;;6.00;76.80;;;7.39;57.88;96836.28;4862542;29;20435;-49
2024/03/25 02:03:48;;;;;;;3.90;2.43;;;5.90;77.50;;;7.42;57.94;96839.41;4862856;29;20045;-47
2024/03/25 02:06:17;;;;;;;6.43;2.80;;;5.90;77.10;;;7.37;57.60;96843.56;4862939;29;20053;-46
2024/03/25 02:08:44;;;;;;;7.67;2.80;;;5.90;77.20;;;7.33;58.23;96834.25;4863027;29;20065;-48
2024/03/25 02:11:12;;;;;;;5.57;3.50;;;5.90;77.50;;;7.39;58.10;96831.81;4862370;29;20477;-45
2024/03/25 02:13:39;;;;;;;5.53;3.10;;;5.90;77.50;;;7.46;57.67;96829.34;4862712;29;20117;-47
2024/03/25 02:16:06;;;;;;;7.37;3.07;;;6.00;76.70;;;7.47;57.49;96831.81;4862461;29;20045;-47
2024/03/25 02:18:33;;;;;;;5.17;2.77;;;6.10;76.80;;;7.46;57.45;96834.63;4862692;29;20040;-45
2024/03/25 02:21:01;;;;;;;5.20;2.80;;;6.10;76.60;;;7.48;57.32;96833.50;4862330;29;20048;-45
2024/03/25 02:23:27;;;;;;;5.67;2.83;;;6.10;76.60;;;7.43;57.37;96834.97;4854889;29;20041;-49
2024/03/25 02:25:54;;;;;;;8.20;4.13;;;6.00;76.20;;;7.42;57.59;96833.31;4862276;29;20037;-45
2024/03/25 02:28:21;;;;;;;4.10;2.67;;;6.00;76.40;;;7.45;57.17;96836.47;4862342;29;20412;-47
2024/03/25 02:30:48;;;;;;;4.17;2.60;;;6.00;76.20;;;7.45;57.50;96827.69;4862023;29;20065;-49
2024/03/25 02:33:15;;;;;;;4.60;2.83;;;6.00;76.10;;;7.37;57.17;96830.31;4862051;29;20507;-48
2024/03/25 02:35:43;;;;;;;7.10;2.83;;;6.00;75.50;;;7.36;57.95;96826.81;4862470;29;20057;-47
2024/03/25 02:38:10;;;;;;;8.13;4.63;;;5.90;76.70;;;7.42;57.53;96826.19;4862280;29;20049;-47
2024/03/25 02:40:38;;;;;;;6.23;3.07;;;6.00;76.20;;;7.35;57.46;96835.78;4862151;29;20033;-45
2024/03/25 02:43:07;;;;;;;5.60;2.97;;;5.90;76.60;;;7.33;57.79;96832.47;4846235;29;20041;-47
2024/03/25 02:45:33;;;;;;;7.13;3.30;;;5.90;77.20;;;7.37;57.49;96822.38;4862288;29;20499;-45
2024/03/25 02:48:00;;;;;;;6.40;3.63;;;5.80;77.40;;;7.36;57.15;96823.34;4862181;29;20041;-47
2024/03/25 02:50:27;;;;;;;6.27;3.00;;;5.80;77.10;;;7.41;57.35;96819.25;4862017;29;20531;-44
2024/03/25 02:52:54;;;;;;;5.07;3.80;;;5.90;77.00;;;7.45;57.04;96825.03;4861732;29;20049;-46
2024/03/25 02:55:20;;;;;;;5.13;3.30;;;5.90;76.90;;;7.49;57.43;96831.66;4861916;29;20419;-48
2024/03/25 02:57:47;;;;;;;6.10;2.97;;;6.00;76.80;;;7.52;57.65;96826.03;4861751;29;20041;-49
2024/03/25 03:00:14;;;;;;;4.90;2.90;;;6.00;77.00;;;7.47;57.59;96831.81;4862031;29;20048;-47
2024/03/25 03:02:40;;;;;;;5.87;2.87;;;6.00;76.70;;;7.48;57.56;96822.06;4861585;29;20040;-49
2024/03/25 03:05:08;;;;;;;6.37;3.20;;;5.90;76.60;;;7.54;57.04;96833.81;4861553;29;20501;-44
2024/03/25 03:07:34;;;;;;;3.63;2.60;;;6.00;76.10;;;7.54;56.91;96837.31;4861822;29;20541;-46
2024/03/25 03:10:01;;;;;;;5.63;2.63;;;6.00;75.70;;;7.53;57.08;96827.72;4861876;29;20044;-45
2024/03/25 03:12:28;;;;;;;6.03;2.50;;;6.00;76.20;;;7.55;56.96;96828.38;4861376;29;20052;-47
2024/03/25 03:14:54;;;;;;;7.50;2.70;;;6.00;76.20;;;7.59;56.94;96828.88;4846532;29;20037;-48
2024/03/25 03:17:21;;;;;;;4.03;2.70;;;6.00;77.20;;;7.58;57.08;96827.22;4861420;29;20063;-47
2024/03/25 03:19:48;;;;;;;5.37;3.23;;;6.00;75.90;;;7.63;56.80;96832.84;4861963;29;20056;-46
2024/03/25 03:22:14;;;;;;;5.03;2.47;;;6.10;75.70;;;7.62;56.60;96826.75;4860398;29;20049;-46
2024/03/25 03:24:41;;;;;;;4.43;2.70;;;6.10;75.80;;;7.56;56.77;96822.09;4861630;29;20527;-47
2024/03/25 03:27:08;;;;;;;3.73;2.70;;;6.00;76.10;;;7.57;57.02;96821.09;4861455;29;20036;-46
2024/03/25 03:29:34;;;;;;;5.23;3.00;;;5.90;76.80;;;7.62;56.80;96816.16;4861661;29;20033;-47
2024/03/25 03:32:01;;;;;;;6.80;2.50;;;6.00;76.70;;;7.67;56.78;96818.28;4861160;29;20037;-48
2024/03/25 03:34:28;;;;;;;5.87;2.53;;;6.00;76.70;;;7.68;56.72;96825.25;4861402;29;20052;-49
2024/03/25 03:36:54;;;;;;;5.97;2.70;;;6.00;76.00;;;7.58;56.61;96822.75;4861421;29;20044;-46
2024/03/25 03:39:21;;;;;;;5.03;2.63;;;6.00;75.40;;;7.55;56.62;96816.97;4861218;29;20060;-45
2024/03/25 03:41:48;;;;;;;4.53;2.67;;;5.90;76.60;;;7.52;56.62;96819.91;4860742;29;20392;-47
2024/03/25 03:44:15;;;;;;;5.20;3.30;;;5.90;76.20;;;7.47;57.02;96820.41;4861048;29;20545;-49
2024/03/25 03:46:42;;;;;;;4.90;2.50;;;5.80;76.70;;;7.53;56.99;96824.25;4861248;29;20403;-47
2024/03/25 03:49:08;;;;;;;9.13;2.80;;;5.90;76.70;;;7.52;56.61;96811.97;4861165;29;20052;-46
2024/03/25 03:51:35;;;;;;;4.43;2.50;;;5.90;76.60;;;7.53;56.78;96813.63;4860863;29;20431;-46
2024/03/25 03:54:01;;;;;;;5.73;3.03;;;5.90;76.40;;;7.43;57.04;96827.03;4860852;29;20423;-49
2024/03/25 03:56:28;;;;;;;5.23;2.83;;;5.90;76.10;;;7.50;57.03;96817.41;4861087;29;20506;-48
2024/03/25 03:58:55;;;;;;;7.07;2.60;;;5.90;76.50;;;7.54;56.80;96815.28;4845454;29;20489;-48
2024/03/25 04:01:21;;;;;;;4.87;3.10;;;5.90;76.70;;;7.50;56.71;96828.00;4860330;29;20049;-48
2024/03/25 04:03:49;;;;;;;7.77;3.17;;;5.90;76.20;;;7.54;56.98;96831.19;4860926;29;20041;-46
2024/03/25 04:06:16;;;;;;;7.27;4.13;;;5.90;76.90;;;7.43;57.05;96827.03;4861096;29;20064;-48
2024/03/25 04:08:43;;;;;;;3.90;2.80;;;5.80;77.20;;;7.51;56.99;96839.47;4861156;29;20499;-46
2024/03/25 04:11:10;;;;;;;4.43;2.80;;;5.90;77.50;;;7.52;57.01;96831.34;4856233;29;20423;-46
2024/03/25 04:13:37;;;;;;;5.73;2.80;;;6.00;77.00;;;7.53;56.86;96837.47;4842435;29;20499;-46
2024/03/25 04:16:05;;;;;;;4.93;3.00;;;5.90;76.70;;;7.50;56.90;96835.97;4872675;29;20502;-45
2024/03/25 04:18:33;;;;;;;4.80;3.47;;;5.90;76.80;;;7.46;56.95;96831.97;4850951;29;20067;-47
2024/03/25 04:21:00;;;;;;;5.67;2.90;;;5.80;76.80;;;7.37;57.20;96838.25;4858157;29;20052;-45
2024/03/25 04:23:27;;;;;;;5.57;2.83;;;5.70;77.30;;;7.37;56.92;96822.38;4860615;29;20068;-47
2024/03/25 04:25:54;;;;;;;7.37;3.37;;;5.80;77.60;;;7.41;57.22;96826.38;4860880;29;20064;-48
2024/03/25 04:28:22;;;;;;;4.43;2.70;;;5.90;77.90;;;7.40;57.13;96814.09;4875891;29;20049;-45
2024/03/25 04:30:55;;;;;;;6.27;3.47;;;5.90;77.20;;;7.34;57.60;96815.56;4860907;29;20041;-46
2024/03/25 04:33:22;;;;;;;5.27;3.17;;;5.80;76.70;;;7.36;57.24;96815.41;4876020;29;20052;-46
2024/03/25 04:35:48;;;;;;;6.47;2.97;;;5.80;77.50;;;7.41;57.11;96821.88;4860471;29;20422;-47
2024/03/25 04:38:16;;;;;;;4.70;2.60;;;5.90;77.60;;;7.40;57.01;96829.97;4860454;29;20045;-46
2024/03/25 04:40:44;;;;;;;6.30;2.97;;;5.80;77.20;;;7.35;57.23;96822.53;4845141;29;20045;-47
2024/03/25 04:43:10;;;;;;;5.13;3.10;;;5.70;77.80;;;7.40;57.14;96825.50;4875606;29;20056;-47
2024/03/25 04:45:37;;;;;;;5.33;3.27;;;5.70;78.10;;;7.40;56.94;96829.97;4860710;29;20410;-46
2024/03/25 04:48:04;;;;;;;6.33;2.90;;;5.80;77.50;;;7.36;57.17;96820.72;4860698;29;20048;-45
2024/03/25 04:50:31;;;;;;;5.20;2.63;;;5.80;77.40;;;7.34;56.97;96820.88;4845363;29;20048;-46
2024/03/25 04:52:58;;;;;;;5.80;3.10;;;5.70;77.30;;;7.28;56.79;96819.69;4859423;29;20052;-47
2024/03/25 04:55:25;;;;;;;7.70;3.10;;;5.70;77.40;;;7.25;56.90;96825.31;4860137;29;20048;-49
2024/03/25 04:57:52;;;;;;;8.37;3.13;;;5.70;77.90;;;7.25;57.06;96825.31;4860497;29;20094;-45
2024/03/25 05:00:18;;;;;;;6.73;3.50;;;5.60;77.90;;;7.24;57.35;96822.81;4860526;29;20057;-45
2024/03/25 05:02:45;;;;;;;8.17;3.53;;;5.60;77.80;;;7.24;57.30;96828.94;4860084;29;20045;-49
2024/03/25 05:05:12;;;;;;;5.07;3.03;;;5.70;78.40;;;7.25;56.91;96824.47;4860283;29;20420;-46
2024/03/25 05:07:39;;;;;;;4.80;2.97;;;5.70;78.10;;;7.25;57.19;96829.75;4860364;29;20415;-48
2024/03/25 05:10:06;;;;;;;3.97;2.80;;;5.60;78.50;;;7.26;57.27;96828.78;4860093;29;20052;-44
2024/03/25 05:12:33;;;;;;;5.27;2.87;;;5.60;78.60;;;7.25;57.09;96835.91;4859855;29;20045;-46
2024/03/25 05:14:59;;;;;;;7.43;3.57;;;5.60;78.90;;;7.24;57.13;96831.59;4860354;29;20376;-46
2024/03/25 05:17:26;;;;;;;4.30;2.90;;;5.60;78.70;;;7.25;57.14;96841.19;4874883;29;20056;-46
2024/03/25 05:19:53;;;;;;;5.47;2.60;;;5.60;78.60;;;7.26;56.92;96836.72;4860203;29;20041;-46
2024/03/25 05:22:19;;;;;;;9.17;3.40;;;5.50;78.80;;;7.27;57.18;96844.53;4858675;29;20060;-45
2024/03/25 05:24:46;;;;;;;5.97;3.17;;;5.50;78.90;;;7.25;56.97;96849.16;4860519;29;20041;-47
2024/03/25 05:27:15;;;;;;;4.87;3.20;;;5.40;79.30;;;7.23;57.01;96845.84;4860400;29;20052;-46
2024/03/25 05:29:42;;;;;;;6.67;3.07;;;5.40;79.60;;;7.22;57.08;96849.44;4860305;29;20503;-44
2024/03/25 05:32:09;;;;;;;6.73;3.33;;;5.30;79.70;;;7.20;57.33;96845.31;4859737;29;20045;-46
2024/03/25 05:34:36;;;;;;;4.70;2.93;;;5.30;79.90;;;7.19;57.22;96852.44;4859916;29;20052;-45
2024/03/25 05:37:03;;;;;;;5.40;3.50;;;5.30;80.30;;;7.19;57.21;96854.22;4860016;29;20048;-47
2024/03/25 05:39:29;;;;;;;5.07;3.23;;;5.20;80.20;;;7.18;56.99;96863.19;4859903;29;20041;-49
2024/03/25 05:41:56;;;;;;;5.70;3.00;;;5.20;80.60;;;7.16;57.41;96851.91;4844152;29;20056;-45
2024/03/25 05:44:22;;;;;;;7.13;3.43;;;5.20;81.10;;;7.16;57.23;96854.56;4859859;29;20530;-46
2024/03/25 05:46:49;;;;;;;9.07;4.23;;;5.20;81.20;;;7.16;57.46;96858.03;4859761;29;20045;-45
2024/03/25 05:49:16;;;;;;;8.00;3.40;;;5.20;81.10;;;7.18;57.59;96860.53;4859977;29;20064;-46
2024/03/25 05:51:42;;;;;;;7.37;3.33;;;5.20;81.30;;;7.17;57.35;96864.16;4859995;29;20060;-47
2024/03/25 05:54:09;;;;;;;5.00;3.77;;;5.20;81.70;;;7.18;57.54;96868.47;4859934;29;20295;-46
2024/03/25 05:56:36;;;;;;;6.37;2.90;;;5.30;81.30;;;7.17;57.47;96853.56;4859423;29;20057;-47
2024/03/25 05:59:02;;;;;;;5.10;3.77;;;5.30;80.90;;;7.18;57.79;96852.59;4859950;29;20041;-46
2024/03/25 06:01:29;;;;;;;4.77;3.50;;;5.40;80.40;;;7.17;57.63;96854.38;4873295;29;20064;-46
2024/03/25 06:03:56;;;;;;;5.23;3.67;;;5.50;80.00;;;7.17;57.51;96848.28;4860197;29;20391;-47
2024/03/25 06:06:22;;;;;;;5.63;3.33;;;5.50;79.70;;;7.18;57.83;96850.75;4847445;29;20403;-47
2024/03/25 06:08:50;;;;;;;5.63;3.33;;;5.50;79.50;;;7.19;57.24;96854.22;4863191;29;20056;-46
2024/03/25 06:11:17;;;;;;;5.73;3.00;;;5.50;79.00;;;7.17;57.50;96850.91;4862485;29;20056;-46
2024/03/25 06:13:48;;;;;;;9.60;3.50;;;5.50;78.90;;;7.19;57.57;96848.94;4863231;29;20052;-46
2024/03/25 06:16:15;;;;;;;6.20;3.57;;;5.50;79.30;;;7.18;57.35;96852.59;4863178;29;20049;-45
2024/03/25 06:18:42;;;;;;;9.07;3.83;;;5.40;79.20;;;7.18;57.77;96858.69;4848158;29;20052;-48
2024/03/25 06:21:08;;;;;;;4.27;2.77;;;5.50;79.50;;;7.21;57.71;96857.53;4878060;29;20040;-47
2024/03/25 06:23:36;;;;;;;5.13;3.67;;;5.50;79.80;;;7.24;57.70;96859.88;4862073;29;20064;-47
2024/03/25 06:26:02;;;;;;;8.57;3.87;;;5.50;79.50;;;7.28;57.91;96856.75;4862971;29;20049;-50
2024/03/25 06:28:29;;;;;;;8.07;3.67;;;5.50;79.60;;;7.32;57.56;96859.91;4862644;29;20206;-46
2024/03/25 06:36:25;;;;;;;9.57;4.87;;;5.70;79.80;;;7.37;57.56;96865.56;4846845;29;20060;-48
2024/03/25 06:38:52;;;;;;;8.20;3.70;;;5.70;79.10;;;7.40;57.38;96869.72;4862698;29;20052;-46
2024/03/25 06:41:19;;;;;;;8.60;4.10;;;5.70;79.30;;;7.44;57.53;96873.69;4861485;29;20111;-45
2024/03/25 06:43:46;;;;;;;6.03;3.23;;;5.80;79.30;;;7.49;57.71;96876.69;4863135;29;20431;-48
2024/03/25 06:46:13;;;;;;;7.97;3.97;;;5.80;80.20;;;7.55;57.59;96878.69;4862654;29;20526;-46
2024/03/25 06:48:39;;;;;;;7.50;4.13;;;5.80;79.30;;;7.57;57.01;96871.41;4862575;29;20048;-46
2024/03/25 06:51:06;;;;;;;7.40;3.30;;;5.80;78.70;;;7.58;57.42;96874.88;4862014;29;20041;-46
2024/03/25 06:53:33;;;;;;;7.07;3.83;;;5.90;78.80;;;7.56;57.38;96876.88;4862412;29;20053;-47
2024/03/25 06:56:01;;;;;;;5.80;3.23;;;5.90;78.20;;;7.57;57.35;96879.38;4862499;29;20068;-47
2024/03/25 06:58:28;;;;;;;6.00;3.60;;;5.90;78.30;;;7.59;57.49;96885.31;4861970;29;20056;-46
2024/03/25 07:00:56;;;;;;;4.37;3.10;;;6.00;78.30;;;7.61;57.36;96883.34;4862403;29;20048;-47
2024/03/25 07:03:24;;;;;;;6.90;3.40;;;6.00;78.10;;;7.60;57.52;96883.50;4862127;29;20055;-46
2024/03/25 07:05:55;;;;;;;5.90;3.23;;;6.00;77.80;;;7.64;57.40;96887.50;4862363;29;20052;-45
2024/03/25 07:08:22;;;;;;;7.20;3.50;;;6.00;78.20;;;7.61;57.42;96893.94;4862362;29;20056;-46
2024/03/25 07:10:49;;;;;;;6.30;3.30;;;6.10;77.80;;;7.65;57.57;96886.50;4861662;29;20057;-46
2024/03/25 07:13:16;;;;;;;7.40;3.17;;;6.10;77.90;;;7.67;57.51;96895.13;4861753;29;20456;-47
2024/03/25 07:15:43;;;;;;;6.03;3.17;;;6.10;77.40;;;7.63;57.26;96884.00;4861716;29;20048;-49
2024/03/25 07:18:13;;;;;;;5.97;4.70;;;6.10;76.30;;;7.61;57.26;96890.47;4862139;29;20056;-45
2024/03/25 07:20:40;;;;;;;4.97;3.07;;;6.10;75.70;;;7.53;57.56;96878.03;4843803;29;20067;-45
2024/03/25 07:23:08;;;;;;;7.67;3.10;;;6.10;76.60;;;7.51;57.64;96876.53;4861920;29;20049;-47
2024/03/25 07:25:36;;;;;;;7.97;3.60;;;6.10;76.60;;;7.56;57.49;96874.22;4861821;29;20060;-45
2024/03/25 07:28:03;;;;;;;7.17;3.73;;;6.10;76.20;;;7.59;57.32;96873.91;4861949;29;20049;-45
2024/03/25 07:30:31;;;;;;;5.17;3.40;;;6.10;76.40;;;7.61;57.45;96869.28;4842693;29;20530;-44
2024/03/25 07:32:58;;;;;;;7.63;3.77;;;6.10;76.80;;;7.62;57.29;96870.94;4861420;29;20048;-47
2024/03/25 07:35:26;;;;;;;6.27;3.53;;;6.20;75.70;;;7.63;57.12;96870.75;4861586;29;20533;-44
2024/03/25 07:37:52;;;;;;;8.47;3.23;;;6.20;75.50;;;7.71;57.21;96861.19;4861840;29;20521;-50
2024/03/25 07:40:20;;;;;;;4.60;2.83;;;6.20;75.40;;;7.69;56.62;96859.53;4861625;29;20043;-45
2024/03/25 07:42:51;;;;;;;5.10;2.90;;;6.30;73.30;;;7.76;56.68;96859.72;4861237;29;20044;-49
2024/03/25 07:45:18;;;;;;;10.77;3.80;;;6.30;73.30;;;7.67;56.56;96861.50;4861489;29;20052;-47
2024/03/25 07:47:44;;;;;;;6.10;2.97;;;6.30;73.90;;;7.72;56.11;96863.69;4861621;29;20044;-46
2024/03/25 07:50:12;;;;;;;4.67;2.83;;;6.30;71.20;;;7.79;55.78;96858.56;4876680;29;20063;-45
2024/03/25 07:52:40;;;;;;;5.93;2.60;;;6.40;70.80;;;7.80;55.49;96857.56;4861154;29;20418;-48
2024/03/25 07:55:08;;;;;;;6.57;2.30;;;6.40;70.20;;;7.87;55.50;96855.91;4861396;29;20056;-46
2024/03/25 07:57:35;;;;;;;4.90;3.20;;;6.40;70.80;;;7.76;54.17;96865.00;4861191;29;20105;-46
2024/03/25 08:00:08;;;;;;;4.17;2.23;;;6.40;67.70;;;7.78;54.59;96863.03;4861276;29;20096;-46
2024/03/25 08:02:41;;;;;;;7.17;2.60;;;6.40;69.30;;;7.94;54.79;96869.34;4861571;29;20271;-48
2024/03/25 08:05:08;;;;;;;4.70;2.20;;;6.50;69.20;;;7.97;53.80;96866.34;4861243;29;20049;-47
2024/03/25 08:07:35;;;;;;;5.97;2.60;;;6.60;67.70;;;8.01;53.90;96873.00;4860898;29;20121;-45
2024/03/25 08:10:03;;;;;;;8.30;2.80;;;6.60;67.60;;;8.11;53.91;96870.22;4861225;29;20049;-46
2024/03/25 08:12:30;;;;;;;5.70;2.20;;;6.60;67.40;;;8.18;53.44;96865.88;4860669;29;20053;-47
2024/03/25 08:14:57;;;;;;;4.33;1.87;;;6.70;67.80;;;8.24;53.36;96865.25;4861146;29;20044;-48
2024/03/25 08:17:23;;;;;;;3.33;1.93;;;6.70;67.70;;;8.22;52.54;96861.91;4860920;29;20057;-45
2024/03/25 08:19:50;;;;;;;3.17;1.83;;;6.70;64.30;;;8.26;51.97;96863.25;4860726;29;20044;-45
2024/03/25 08:22:16;;;;;;;5.47;2.40;;;6.80;64.40;;;8.21;51.52;96860.25;4859990;29;20049;-49
2024/03/25 08:24:43;;;;;;;4.17;2.00;;;6.80;62.60;;;8.17;50.91;96853.63;4860778;29;20423;-45
2024/03/25 08:27:10;;;;;;;3.23;1.93;;;6.80;62.60;;;8.21;51.02;96857.59;4860506;29;20045;-46
2024/03/25 08:29:36;;;;;;;4.40;1.90;;;6.80;62.80;;;8.25;50.66;96850.97;4860544;29;20430;-48
2024/03/25 08:32:03;;;;;;;4.33;2.37;;;6.80;60.80;;;8.33;51.02;96845.66;4860345;29;20049;-48
2024/03/25 08:34:30;;;;;;;3.97;1.73;;;6.80;63.30;;;8.34;50.70;96834.06;4860817;29;20060;-47
2024/03/25 08:36:57;;;;;;;5.80;1.80;;;6.80;62.30;;;8.36;49.54;96845.34;4860792;29;20053;-49
2024/03/25 08:39:24;;;;;;;3.67;2.07;;;6.90;59.80;;;8.40;50.25;96838.72;4860776;29;20059;-47
2024/03/25 08:41:50;;;;;;;5.20;2.17;;;6.90;60.40;;;8.47;50.68;96841.53;4860026;29;20045;-46
2024/03/25 08:44:17;;;;;;;5.23;3.47;;;7.00;62.30;;;8.55;50.66;96846.84;4860702;29;20051;-46
2024/03/25 08:46:43;;;;;;;4.30;1.97;;;7.10;62.70;;;8.60;50.46;96846.34;4860391;29;20506;-46
2024/03/25 08:49:10;;;;;;;5.73;2.80;;;7.10;62.50;;;8.63;49.80;96846.84;4845317;29;20060;-45
2024/03/25 08:51:37;;;;;;;4.27;1.90;;;7.10;60.90;;;8.63;49.94;96836.22;4859835;29;20045;-49
2024/03/25 08:54:03;;;;;;;3.20;1.87;;;7.10;59.80;;;8.65;49.60;96836.06;4853612;29;20447;-47
2024/03/25 08:56:30;;;;;;;4.50;2.30;;;7.10;60.10;;;8.63;49.53;96835.41;4856636;29;20045;-47
2024/03/25 08:58:58;;;;;;;4.00;1.80;;;7.10;60.50;;;8.65;49.76;96838.72;4860301;29;20045;-47
2024/03/25 09:01:26;;;;;;;3.87;2.20;;;7.10;60.90;;;8.67;49.69;96837.53;4859795;29;20052;-48
2024/03/25 09:03:52;;;;;;;6.13;2.47;;;7.20;60.90;;;8.70;49.44;96830.22;4845271;29;20037;-48
2024/03/25 09:06:19;;;;;;;4.80;1.73;;;7.30;60.60;;;8.64;48.55;96821.94;4860360;29;20076;-51
2024/03/25 09:11:31;;;;;;;2.97;1.50;;;7.30;59.90;;;8.76;49.51;96819.78;4859882;29;20218;-47
2024/03/25 09:13:58;;;;;;;4.93;1.77;;;7.30;59.50;;;8.82;49.16;96818.25;4860591;29;20045;-47
2024/03/25 09:16:25;;;;;;;3.20;2.03;;;7.30;60.10;;;8.87;48.91;96823.88;4860452;29;20053;-46
2024/03/25 09:18:51;;;;;;;4.20;1.77;;;7.40;59.50;;;8.92;48.77;96824.22;4860393;29;20045;-46
2024/03/25 09:21:18;;;;;;;5.70;1.87;;;7.40;59.10;;;8.95;48.95;96815.06;4860070;29;20041;-49
2024/03/25 09:23:45;;;;;;;4.10;2.00;;;7.50;59.20;;;9.01;48.99;96815.19;4859536;29;20057;-49
2024/03/25 09:26:12;;;;;;;6.70;2.63;;;7.60;59.40;;;9.06;48.53;96814.72;4860494;29;20041;-49
2024/03/25 09:28:39;;;;;;;2.73;1.70;;;7.60;59.30;;;9.00;47.72;96818.06;4860239;29;20041;-48
2024/03/25 09:31:05;;;;;;;4.43;2.10;;;7.50;57.50;;;8.99;47.53;96808.41;4860058;29;20045;-47
2024/03/25 09:33:33;;;;;;;1.90;1.47;;;7.50;57.50;;;9.06;47.98;96801.44;4860338;29;20060;-47
2024/03/25 09:36:00;;;;;;;3.30;2.23;;;7.60;57.70;;;9.05;47.55;96789.13;4860252;29;20430;-51
2024/03/25 09:38:27;;;;;;;2.27;1.77;;;7.60;57.70;;;9.04;47.49;96784.84;4861449;29;20049;-46
2024/03/25 09:40:55;;;;;;;4.93;1.80;;;7.60;57.40;;;9.06;47.92;96788.16;4863721;29;20506;-46
2024/03/25 09:43:47;;;;;;;5.53;2.20;;;7.60;58.20;;;9.13;47.51;96781.16;4863099;29;21071;-46
2024/03/25 09:46:14;;;;;;;3.57;1.93;;;7.70;57.30;;;9.15;47.41;96787.13;4857373;29;20049;-51
2024/03/25 09:48:41;;;;;;;5.17;2.07;;;7.70;57.30;;;9.17;47.47;96776.31;4863569;29;20056;-50
2024/03/25 09:51:09;;;;;;;3.13;2.40;;;7.70;57.20;;;9.20;47.69;96775.97;4863113;29;20076;-51
2024/03/25 09:53:36;;;;;;;2.93;2.47;;;7.70;57.90;;;9.25;47.62;96773.63;4863490;29;20045;-48
2024/03/25 09:56:04;;;;;;;3.53;1.87;;;7.80;57.30;;;9.31;47.59;96769.44;4863767;29;20049;-49
2024/03/25 09:58:32;;;;;;;6.27;1.70;;;7.90;56.70;;;9.37;47.45;96774.06;4864156;29;20056;-49
2024/03/25 10:01:00;;;;;;;5.93;2.20;;;7.90;57.40;;;9.44;47.75;96764.38;4863167;29;20057;-50
2024/03/25 10:03:27;;;;;;;8.83;4.73;;;8.00;57.70;;;9.50;47.19;96763.69;4863606;29;20056;-50
2024/03/25 10:05:54;;;;;;;5.77;2.47;;;8.10;57.10;;;9.57;47.24;96756.66;4863469;29;20080;-47
2024/03/25 10:08:21;;;;;;;4.80;2.43;;;8.20;57.70;;;9.67;47.33;96751.09;4863431;29;20384;-50
2024/03/25 10:10:48;;;;;;;6.10;2.10;;;8.30;56.70;;;9.74;46.99;96749.41;4863510;29;20069;-49
2024/03/25 10:13:16;;;;;;;5.67;2.10;;;8.40;56.90;;;9.81;46.85;96742.38;4862821;29;20423;-48
2024/03/25 10:15:48;;;;;;;3.13;1.80;;;8.40;56.60;;;9.88;46.75;96731.03;4862200;29;20068;-46
2024/03/25 10:18:15;;;;;;;4.23;1.90;;;8.50;56.00;;;9.92;46.56;96735.78;4844916;29;20526;-46
2024/03/25 10:20:49;;;;;;;7.53;2.83;;;8.50;55.60;;;9.95;46.20;96724.81;4865807;29;20044;-47
2024/03/25 10:23:19;;;;;;;2.23;1.70;;;8.50;55.00;;;10.00;45.77;96729.56;4856348;29;20045;-47
2024/03/25 10:25:48;;;;;;;2.63;1.53;;;8.60;54.70;;;9.97;45.35;96719.31;4863202;29;20049;-47
2024/03/25 10:28:14;;;;;;;2.90;1.97;;;8.50;54.60;;;10.00;45.71;96716.28;4863141;29;20047;-54
2024/03/25 10:30:41;;;;;;;4.63;1.90;;;8.60;54.90;;;9.98;45.09;96724.47;4863289;29;20053;-47
2024/03/25 10:33:08;;;;;;;3.97;1.80;;;8.50;53.90;;;9.95;45.14;96719.50;4855244;29;20041;-48
2024/03/25 10:35:37;;;;;;;2.83;1.67;;;8.50;53.70;;;9.92;44.64;96709.19;4862956;29;20056;-49
2024/03/25 10:38:06;;;;;;;5.90;2.23;;;8.50;53.60;;;9.94;45.76;96714.34;4855577;29;20507;-47
2024/03/25 10:40:36;;;;;;;2.97;2.40;;;8.50;54.60;;;9.99;44.76;96710.13;4862736;29;20503;-49